sensor_id;sensor_type;location;lat;lon;timestamp;P1;durP1;ratioP1;P2;durP2;ratioP2
17658;SDS011;8948;51.534;8.262;2023-04-24T00:03:56;1.38;;;1.02;;
17658;SDS011;8948;51.534;8.262;2023-04-24T00:08:59;1.07;;;0.90;;
17658;SDS011;8948;51.534;8.262;2023-04-24T00:14:00;1.53;;;0.90;;
17658;SDS011;8948;51.534;8.262;2023-04-24T00:19:01;0.93;;;0.83;;
17658;SDS011;8948;51.534;8.262;2023-04-24T00:24:02;1.43;;;0.90;;
17658;SDS011;8948;51.534;8.262;2023-04-24T00:29:02;1.13;;;1.00;;
17658;SDS011;8948;51.534;8.262;2023-04-24T00:34:03;1.27;;;1.00;;
17658;SDS011;8948;51.534;8.262;2023-04-24T00:39:04;1.03;;;1.00;;
17658;SDS011;8948;51.534;8.262;2023-04-24T00:44:05;0.70;;;0.70;;
17658;SDS011;8948;51.534;8.262;2023-04-24T00:49:05;1.57;;;1.00;;
17658;SDS011;8948;51.534;8.262;2023-04-24T00:54:06;0.93;;;0.93;;
17658;SDS011;8948;51.534;8.262;2023-04-24T00:59:07;1.23;;;0.80;;
17658;SDS011;8948;51.534;8.262;2023-04-24T01:04:08;0.80;;;0.77;;
17658;SDS011;8948;51.534;8.262;2023-04-24T01:09:10;1.23;;;0.90;;
17658;SDS011;8948;51.534;8.262;2023-04-24T01:14:11;0.90;;;0.80;;
17658;SDS011;8948;51.534;8.262;2023-04-24T01:19:12;0.80;;;0.80;;
17658;SDS011;8948;51.534;8.262;2023-04-24T01:24:15;1.20;;;1.00;;
17658;SDS011;8948;51.534;8.262;2023-04-24T01:29:16;1.50;;;1.00;;
17658;SDS011;8948;51.534;8.262;2023-04-24T01:34:16;1.03;;;0.90;;
17658;SDS011;8948;51.534;8.262;2023-04-24T01:39:17;0.90;;;0.90;;
17658;SDS011;8948;51.534;8.262;2023-04-24T01:44:20;1.10;;;1.07;;
17658;SDS011;8948;51.534;8.262;2023-04-24T01:49:21;1.30;;;1.20;;
17658;SDS011;8948;51.534;8.262;2023-04-24T01:54:22;1.20;;;1.00;;
17658;SDS011;8948;51.534;8.262;2023-04-24T01:59:22;1.77;;;1.20;;
17658;SDS011;8948;51.534;8.262;2023-04-24T02:04:25;4.47;;;1.30;;
17658;SDS011;8948;51.534;8.262;2023-04-24T02:09:25;1.00;;;1.00;;
17658;SDS011;8948;51.534;8.262;2023-04-24T02:14:26;1.90;;;1.40;;
17658;SDS011;8948;51.534;8.262;2023-04-24T02:19:26;4.30;;;1.60;;
17658;SDS011;8948;51.534;8.262;2023-04-24T02:24:27;1.30;;;1.20;;
17658;SDS011;8948;51.534;8.262;2023-04-24T02:29:28;2.40;;;1.30;;
17658;SDS011;8948;51.534;8.262;2023-04-24T02:34:28;1.33;;;1.23;;
17658;SDS011;8948;51.534;8.262;2023-04-24T02:39:29;2.23;;;1.40;;
17658;SDS011;8948;51.534;8.262;2023-04-24T02:44:29;1.63;;;1.10;;
17658;SDS011;8948;51.534;8.262;2023-04-24T02:49:30;1.80;;;1.43;;
17658;SDS011;8948;51.534;8.262;2023-04-24T02:54:31;2.50;;;1.30;;
17658;SDS011;8948;51.534;8.262;2023-04-24T02:59:31;1.73;;;1.40;;
17658;SDS011;8948;51.534;8.262;2023-04-24T03:04:32;2.57;;;1.40;;
17658;SDS011;8948;51.534;8.262;2023-04-24T03:09:32;1.40;;;1.30;;
17658;SDS011;8948;51.534;8.262;2023-04-24T03:14:33;2.97;;;1.30;;
17658;SDS011;8948;51.534;8.262;2023-04-24T03:19:33;1.90;;;1.70;;
17658;SDS011;8948;51.534;8.262;2023-04-24T03:24:34;3.17;;;1.80;;
17658;SDS011;8948;51.534;8.262;2023-04-24T03:29:34;2.40;;;1.80;;
17658;SDS011;8948;51.534;8.262;2023-04-24T03:34:35;2.10;;;1.90;;
17658;SDS011;8948;51.534;8.262;2023-04-24T03:39:36;2.10;;;1.90;;
17658;SDS011;8948;51.534;8.262;2023-04-24T03:44:36;2.67;;;2.07;;
17658;SDS011;8948;51.534;8.262;2023-04-24T03:49:37;2.50;;;2.20;;
17658;SDS011;8948;51.534;8.262;2023-04-24T03:54:37;3.67;;;2.07;;
17658;SDS011;8948;51.534;8.262;2023-04-24T03:59:39;2.50;;;2.20;;
17658;SDS011;8948;51.534;8.262;2023-04-24T04:04:40;3.40;;;2.50;;
17658;SDS011;8948;51.534;8.262;2023-04-24T04:09:40;5.20;;;2.60;;
17658;SDS011;8948;51.534;8.262;2023-04-24T04:14:41;4.43;;;3.17;;
17658;SDS011;8948;51.534;8.262;2023-04-24T04:19:41;3.50;;;2.37;;
17658;SDS011;8948;51.534;8.262;2023-04-24T04:24:42;4.40;;;3.00;;
17658;SDS011;8948;51.534;8.262;2023-04-24T04:29:42;4.10;;;3.70;;
17658;SDS011;8948;51.534;8.262;2023-04-24T04:34:43;11.47;;;5.27;;
17658;SDS011;8948;51.534;8.262;2023-04-24T04:39:45;9.00;;;6.07;;
17658;SDS011;8948;51.534;8.262;2023-04-24T04:44:45;11.50;;;8.13;;
17658;SDS011;8948;51.534;8.262;2023-04-24T04:49:46;15.47;;;9.47;;
17658;SDS011;8948;51.534;8.262;2023-04-24T04:54:46;14.67;;;8.60;;
17658;SDS011;8948;51.534;8.262;2023-04-24T04:59:47;19.07;;;9.60;;
17658;SDS011;8948;51.534;8.262;2023-04-24T05:04:48;13.33;;;7.90;;
17658;SDS011;8948;51.534;8.262;2023-04-24T05:09:48;14.87;;;8.10;;
17658;SDS011;8948;51.534;8.262;2023-04-24T05:14:49;13.30;;;7.80;;
17658;SDS011;8948;51.534;8.262;2023-04-24T05:19:49;12.17;;;7.27;;
17658;SDS011;8948;51.534;8.262;2023-04-24T05:24:51;13.17;;;7.53;;
17658;SDS011;8948;51.534;8.262;2023-04-24T05:29:51;13.00;;;7.73;;
17658;SDS011;8948;51.534;8.262;2023-04-24T05:34:52;12.53;;;7.67;;
17658;SDS011;8948;51.534;8.262;2023-04-24T05:39:52;15.63;;;7.47;;
17658;SDS011;8948;51.534;8.262;2023-04-24T05:44:53;12.53;;;6.67;;
17658;SDS011;8948;51.534;8.262;2023-04-24T05:49:54;10.80;;;7.20;;
17658;SDS011;8948;51.534;8.262;2023-04-24T05:54:55;12.47;;;7.20;;
17658;SDS011;8948;51.534;8.262;2023-04-24T05:59:55;12.27;;;8.13;;
17658;SDS011;8948;51.534;8.262;2023-04-24T06:04:56;11.57;;;7.50;;
17658;SDS011;8948;51.534;8.262;2023-04-24T06:09:57;10.30;;;6.50;;
17658;SDS011;8948;51.534;8.262;2023-04-24T06:14:58;15.70;;;6.67;;
17658;SDS011;8948;51.534;8.262;2023-04-24T06:19:58;11.73;;;6.53;;
17658;SDS011;8948;51.534;8.262;2023-04-24T06:24:59;13.67;;;6.20;;
17658;SDS011;8948;51.534;8.262;2023-04-24T06:30:00;8.53;;;6.43;;
17658;SDS011;8948;51.534;8.262;2023-04-24T06:35:01;7.73;;;5.70;;
17658;SDS011;8948;51.534;8.262;2023-04-24T06:40:01;13.43;;;6.60;;
17658;SDS011;8948;51.534;8.262;2023-04-24T06:45:02;8.63;;;5.17;;
17658;SDS011;8948;51.534;8.262;2023-04-24T06:50:03;6.90;;;5.30;;
17658;SDS011;8948;51.534;8.262;2023-04-24T06:55:04;8.20;;;4.63;;
17658;SDS011;8948;51.534;8.262;2023-04-24T07:00:06;7.33;;;5.57;;
17658;SDS011;8948;51.534;8.262;2023-04-24T07:05:07;9.53;;;5.57;;
17658;SDS011;8948;51.534;8.262;2023-04-24T07:10:08;7.33;;;5.47;;
17658;SDS011;8948;51.534;8.262;2023-04-24T07:15:09;8.90;;;4.63;;
17658;SDS011;8948;51.534;8.262;2023-04-24T07:20:11;5.70;;;4.80;;
17658;SDS011;8948;51.534;8.262;2023-04-24T07:25:11;7.60;;;4.57;;
17658;SDS011;8948;51.534;8.262;2023-04-24T07:30:12;5.97;;;4.33;;
17658;SDS011;8948;51.534;8.262;2023-04-24T07:35:12;7.33;;;4.30;;
17658;SDS011;8948;51.534;8.262;2023-04-24T07:40:13;13.70;;;5.07;;
17658;SDS011;8948;51.534;8.262;2023-04-24T07:45:14;6.90;;;4.33;;
17658;SDS011;8948;51.534;8.262;2023-04-24T07:50:15;6.07;;;4.30;;
17658;SDS011;8948;51.534;8.262;2023-04-24T07:55:15;6.60;;;4.00;;
17658;SDS011;8948;51.534;8.262;2023-04-24T08:00:16;6.63;;;4.00;;
17658;SDS011;8948;51.534;8.262;2023-04-24T08:05:17;5.37;;;3.43;;
17658;SDS011;8948;51.534;8.262;2023-04-24T08:10:18;4.00;;;3.13;;
17658;SDS011;8948;51.534;8.262;2023-04-24T08:15:18;4.70;;;3.20;;
17658;SDS011;8948;51.534;8.262;2023-04-24T08:20:19;5.17;;;3.37;;
17658;SDS011;8948;51.534;8.262;2023-04-24T08:25:20;3.07;;;2.43;;
17658;SDS011;8948;51.534;8.262;2023-04-24T08:30:20;3.50;;;2.90;;
17658;SDS011;8948;51.534;8.262;2023-04-24T08:35:21;7.73;;;2.87;;
17658;SDS011;8948;51.534;8.262;2023-04-24T08:40:27;3.57;;;2.57;;
17658;SDS011;8948;51.534;8.262;2023-04-24T08:45:32;4.37;;;1.77;;
17658;SDS011;8948;51.534;8.262;2023-04-24T08:50:32;4.00;;;1.50;;
17658;SDS011;8948;51.534;8.262;2023-04-24T08:55:34;3.70;;;1.13;;
17658;SDS011;8948;51.534;8.262;2023-04-24T09:00:36;0.93;;;0.83;;
17658;SDS011;8948;51.534;8.262;2023-04-24T09:05:39;1.70;;;0.90;;
17658;SDS011;8948;51.534;8.262;2023-04-24T09:10:45;0.90;;;0.90;;
17658;SDS011;8948;51.534;8.262;2023-04-24T09:15:46;2.50;;;1.00;;
17658;SDS011;8948;51.534;8.262;2023-04-24T09:20:57;1.40;;;1.20;;
17658;SDS011;8948;51.534;8.262;2023-04-24T09:25:59;0.90;;;0.90;;
17658;SDS011;8948;51.534;8.262;2023-04-24T09:31:07;1.20;;;1.10;;
17658;SDS011;8948;51.534;8.262;2023-04-24T09:36:10;1.10;;;1.00;;
17658;SDS011;8948;51.534;8.262;2023-04-24T09:41:13;1.00;;;0.90;;
17658;SDS011;8948;51.534;8.262;2023-04-24T09:46:13;2.10;;;1.00;;
17658;SDS011;8948;51.534;8.262;2023-04-24T09:51:14;1.67;;;0.90;;
17658;SDS011;8948;51.534;8.262;2023-04-24T09:56:15;1.30;;;1.00;;
17658;SDS011;8948;51.534;8.262;2023-04-24T10:01:16;0.90;;;0.90;;
17658;SDS011;8948;51.534;8.262;2023-04-24T10:06:35;0.70;;;0.70;;
17658;SDS011;8948;51.534;8.262;2023-04-24T10:11:36;0.87;;;0.87;;
17658;SDS011;8948;51.534;8.262;2023-04-24T10:16:40;0.80;;;0.80;;
17658;SDS011;8948;51.534;8.262;2023-04-24T10:21:43;2.17;;;0.87;;
17658;SDS011;8948;51.534;8.262;2023-04-24T10:26:46;2.30;;;0.90;;
17658;SDS011;8948;51.534;8.262;2023-04-24T10:31:50;1.80;;;1.00;;
17658;SDS011;8948;51.534;8.262;2023-04-24T10:36:51;1.70;;;1.00;;
17658;SDS011;8948;51.534;8.262;2023-04-24T10:41:54;1.53;;;1.20;;
17658;SDS011;8948;51.534;8.262;2023-04-24T10:46:57;1.27;;;1.07;;
17658;SDS011;8948;51.534;8.262;2023-04-24T10:52:01;4.47;;;1.10;;
17658;SDS011;8948;51.534;8.262;2023-04-24T11:02:18;1.23;;;1.00;;
17658;SDS011;8948;51.534;8.262;2023-04-24T11:13:16;1.37;;;1.10;;
17658;SDS011;8948;51.534;8.262;2023-04-24T11:18:22;1.20;;;1.10;;
17658;SDS011;8948;51.534;8.262;2023-04-24T11:23:23;1.60;;;1.50;;
17658;SDS011;8948;51.534;8.262;2023-04-24T11:28:23;2.97;;;1.80;;
17658;SDS011;8948;51.534;8.262;2023-04-24T11:33:24;3.20;;;2.20;;
17658;SDS011;8948;51.534;8.262;2023-04-24T11:38:25;2.17;;;1.93;;
17658;SDS011;8948;51.534;8.262;2023-04-24T11:43:25;5.43;;;2.03;;
17658;SDS011;8948;51.534;8.262;2023-04-24T11:48:28;3.50;;;2.60;;
17658;SDS011;8948;51.534;8.262;2023-04-24T11:53:28;3.87;;;3.00;;
17658;SDS011;8948;51.534;8.262;2023-04-24T11:58:40;5.13;;;3.23;;
17658;SDS011;8948;51.534;8.262;2023-04-24T12:03:40;5.70;;;3.37;;
17658;SDS011;8948;51.534;8.262;2023-04-24T12:08:46;4.13;;;2.93;;
17658;SDS011;8948;51.534;8.262;2023-04-24T12:13:47;5.33;;;3.07;;
17658;SDS011;8948;51.534;8.262;2023-04-24T12:18:50;5.97;;;3.30;;
17658;SDS011;8948;51.534;8.262;2023-04-24T12:23:54;7.43;;;3.37;;
17658;SDS011;8948;51.534;8.262;2023-04-24T12:28:55;4.73;;;3.13;;
17658;SDS011;8948;51.534;8.262;2023-04-24T12:34:01;9.73;;;4.27;;
17658;SDS011;8948;51.534;8.262;2023-04-24T12:39:01;8.13;;;4.87;;
17658;SDS011;8948;51.534;8.262;2023-04-24T12:44:02;14.13;;;5.10;;
17658;SDS011;8948;51.534;8.262;2023-04-24T12:49:02;13.07;;;5.70;;
17658;SDS011;8948;51.534;8.262;2023-04-24T12:54:03;12.13;;;4.47;;
17658;SDS011;8948;51.534;8.262;2023-04-24T12:59:04;11.73;;;5.17;;
17658;SDS011;8948;51.534;8.262;2023-04-24T13:04:05;13.10;;;6.47;;
17658;SDS011;8948;51.534;8.262;2023-04-24T13:09:05;16.30;;;7.27;;
17658;SDS011;8948;51.534;8.262;2023-04-24T13:14:07;20.97;;;8.93;;
17658;SDS011;8948;51.534;8.262;2023-04-24T13:19:07;14.83;;;8.40;;
17658;SDS011;8948;51.534;8.262;2023-04-24T13:24:08;18.67;;;8.57;;
17658;SDS011;8948;51.534;8.262;2023-04-24T13:29:09;13.47;;;6.93;;
17658;SDS011;8948;51.534;8.262;2023-04-24T13:34:10;16.83;;;7.73;;
17658;SDS011;8948;51.534;8.262;2023-04-24T13:39:10;18.63;;;7.87;;
17658;SDS011;8948;51.534;8.262;2023-04-24T13:44:11;19.37;;;6.77;;
17658;SDS011;8948;51.534;8.262;2023-04-24T13:49:12;17.87;;;7.03;;
17658;SDS011;8948;51.534;8.262;2023-04-24T13:54:13;18.40;;;6.60;;
17658;SDS011;8948;51.534;8.262;2023-04-24T13:59:14;11.40;;;6.43;;
17658;SDS011;8948;51.534;8.262;2023-04-24T14:04:15;19.27;;;6.67;;
17658;SDS011;8948;51.534;8.262;2023-04-24T14:09:15;14.90;;;6.07;;
17658;SDS011;8948;51.534;8.262;2023-04-24T14:14:16;12.40;;;6.40;;
17658;SDS011;8948;51.534;8.262;2023-04-24T14:19:16;12.13;;;5.97;;
17658;SDS011;8948;51.534;8.262;2023-04-24T14:24:17;10.37;;;5.40;;
17658;SDS011;8948;51.534;8.262;2023-04-24T14:29:18;10.17;;;4.67;;
17658;SDS011;8948;51.534;8.262;2023-04-24T14:34:19;10.47;;;5.17;;
17658;SDS011;8948;51.534;8.262;2023-04-24T14:39:20;13.43;;;4.50;;
17658;SDS011;8948;51.534;8.262;2023-04-24T14:44:20;11.93;;;5.13;;
17658;SDS011;8948;51.534;8.262;2023-04-24T14:49:22;9.53;;;4.77;;
17658;SDS011;8948;51.534;8.262;2023-04-24T14:54:23;10.97;;;4.73;;
17658;SDS011;8948;51.534;8.262;2023-04-24T14:59:23;6.13;;;3.77;;
17658;SDS011;8948;51.534;8.262;2023-04-24T15:04:24;11.03;;;4.77;;
17658;SDS011;8948;51.534;8.262;2023-04-24T15:09:25;6.80;;;3.83;;
17658;SDS011;8948;51.534;8.262;2023-04-24T15:14:27;5.17;;;3.00;;
17658;SDS011;8948;51.534;8.262;2023-04-24T15:19:28;4.07;;;2.73;;
17658;SDS011;8948;51.534;8.262;2023-04-24T15:24:29;6.43;;;3.60;;
17658;SDS011;8948;51.534;8.262;2023-04-24T15:29:29;8.33;;;3.10;;
17658;SDS011;8948;51.534;8.262;2023-04-24T15:34:30;7.23;;;3.03;;
17658;SDS011;8948;51.534;8.262;2023-04-24T15:39:32;7.50;;;3.47;;
17658;SDS011;8948;51.534;8.262;2023-04-24T15:44:32;8.77;;;3.43;;
17658;SDS011;8948;51.534;8.262;2023-04-24T15:49:33;10.23;;;2.63;;
17658;SDS011;8948;51.534;8.262;2023-04-24T15:54:33;6.70;;;2.57;;
17658;SDS011;8948;51.534;8.262;2023-04-24T15:59:34;9.20;;;2.90;;
17658;SDS011;8948;51.534;8.262;2023-04-24T16:04:35;8.17;;;3.33;;
17658;SDS011;8948;51.534;8.262;2023-04-24T16:09:35;8.63;;;4.10;;
17658;SDS011;8948;51.534;8.262;2023-04-24T16:14:36;11.07;;;3.90;;
17658;SDS011;8948;51.534;8.262;2023-04-24T16:19:37;12.63;;;4.50;;
17658;SDS011;8948;51.534;8.262;2023-04-24T16:24:37;8.53;;;3.43;;
17658;SDS011;8948;51.534;8.262;2023-04-24T16:29:38;9.37;;;4.10;;
17658;SDS011;8948;51.534;8.262;2023-04-24T16:34:38;7.30;;;4.23;;
17658;SDS011;8948;51.534;8.262;2023-04-24T16:39:39;8.53;;;4.13;;
17658;SDS011;8948;51.534;8.262;2023-04-24T16:44:43;6.60;;;4.10;;
17658;SDS011;8948;51.534;8.262;2023-04-24T16:49:44;6.20;;;3.37;;
17658;SDS011;8948;51.534;8.262;2023-04-24T16:54:45;7.27;;;3.17;;
17658;SDS011;8948;51.534;8.262;2023-04-24T16:59:45;8.97;;;3.30;;
17658;SDS011;8948;51.534;8.262;2023-04-24T17:04:46;5.60;;;3.27;;
17658;SDS011;8948;51.534;8.262;2023-04-24T17:09:47;9.10;;;3.10;;
17658;SDS011;8948;51.534;8.262;2023-04-24T17:14:47;6.23;;;3.03;;
17658;SDS011;8948;51.534;8.262;2023-04-24T17:19:48;6.77;;;2.67;;
17658;SDS011;8948;51.534;8.262;2023-04-24T17:24:50;4.10;;;2.80;;
17658;SDS011;8948;51.534;8.262;2023-04-24T17:29:50;10.10;;;2.67;;
17658;SDS011;8948;51.534;8.262;2023-04-24T17:34:51;8.20;;;2.90;;
17658;SDS011;8948;51.534;8.262;2023-04-24T17:39:51;8.90;;;2.40;;
17658;SDS011;8948;51.534;8.262;2023-04-24T17:44:52;7.97;;;2.80;;
17658;SDS011;8948;51.534;8.262;2023-04-24T17:49:53;5.90;;;2.83;;
17658;SDS011;8948;51.534;8.262;2023-04-24T17:54:53;5.57;;;2.90;;
17658;SDS011;8948;51.534;8.262;2023-04-24T17:59:54;7.10;;;2.93;;
17658;SDS011;8948;51.534;8.262;2023-04-24T18:04:56;4.73;;;2.70;;
17658;SDS011;8948;51.534;8.262;2023-04-24T18:09:56;6.67;;;2.93;;
17658;SDS011;8948;51.534;8.262;2023-04-24T18:14:57;6.07;;;2.70;;
17658;SDS011;8948;51.534;8.262;2023-04-24T18:19:58;7.87;;;3.30;;
17658;SDS011;8948;51.534;8.262;2023-04-24T18:24:58;7.73;;;2.80;;
17658;SDS011;8948;51.534;8.262;2023-04-24T18:29:59;6.67;;;2.57;;
17658;SDS011;8948;51.534;8.262;2023-04-24T18:34:59;6.13;;;2.90;;
17658;SDS011;8948;51.534;8.262;2023-04-24T18:40:00;4.77;;;2.60;;
17658;SDS011;8948;51.534;8.262;2023-04-24T18:45:01;7.90;;;2.83;;
17658;SDS011;8948;51.534;8.262;2023-04-24T18:50:03;4.70;;;3.00;;
17658;SDS011;8948;51.534;8.262;2023-04-24T18:55:05;7.90;;;3.33;;
17658;SDS011;8948;51.534;8.262;2023-04-24T19:00:06;8.53;;;4.03;;
17658;SDS011;8948;51.534;8.262;2023-04-24T19:05:07;5.70;;;3.20;;
17658;SDS011;8948;51.534;8.262;2023-04-24T19:10:09;6.47;;;2.87;;
17658;SDS011;8948;51.534;8.262;2023-04-24T19:15:10;11.33;;;3.47;;
17658;SDS011;8948;51.534;8.262;2023-04-24T19:20:11;9.53;;;2.87;;
17658;SDS011;8948;51.534;8.262;2023-04-24T19:25:12;7.77;;;3.20;;
17658;SDS011;8948;51.534;8.262;2023-04-24T19:30:13;9.67;;;3.00;;
17658;SDS011;8948;51.534;8.262;2023-04-24T19:35:13;10.83;;;2.77;;
17658;SDS011;8948;51.534;8.262;2023-04-24T19:40:14;8.67;;;3.00;;
17658;SDS011;8948;51.534;8.262;2023-04-24T19:45:14;8.90;;;3.10;;
17658;SDS011;8948;51.534;8.262;2023-04-24T19:50:15;9.97;;;2.97;;
17658;SDS011;8948;51.534;8.262;2023-04-24T19:55:16;8.03;;;3.20;;
17658;SDS011;8948;51.534;8.262;2023-04-24T20:00:16;10.67;;;3.53;;
17658;SDS011;8948;51.534;8.262;2023-04-24T20:05:17;8.30;;;3.83;;
17658;SDS011;8948;51.534;8.262;2023-04-24T20:10:18;12.90;;;3.83;;
17658;SDS011;8948;51.534;8.262;2023-04-24T20:15:19;11.90;;;4.13;;
17658;SDS011;8948;51.534;8.262;2023-04-24T20:20:20;11.90;;;4.00;;
17658;SDS011;8948;51.534;8.262;2023-04-24T20:25:21;11.50;;;3.67;;
17658;SDS011;8948;51.534;8.262;2023-04-24T20:30:21;9.73;;;4.37;;
17658;SDS011;8948;51.534;8.262;2023-04-24T20:35:22;12.73;;;3.67;;
17658;SDS011;8948;51.534;8.262;2023-04-24T20:40:23;10.33;;;3.67;;
17658;SDS011;8948;51.534;8.262;2023-04-24T20:45:24;13.23;;;4.23;;
17658;SDS011;8948;51.534;8.262;2023-04-24T20:50:24;11.03;;;3.97;;
17658;SDS011;8948;51.534;8.262;2023-04-24T20:55:25;10.57;;;3.80;;
17658;SDS011;8948;51.534;8.262;2023-04-24T21:00:26;12.03;;;4.60;;
17658;SDS011;8948;51.534;8.262;2023-04-24T21:05:27;8.80;;;4.10;;
17658;SDS011;8948;51.534;8.262;2023-04-24T21:10:28;8.97;;;3.43;;
17658;SDS011;8948;51.534;8.262;2023-04-24T21:15:28;7.83;;;3.67;;
17658;SDS011;8948;51.534;8.262;2023-04-24T21:20:29;7.67;;;3.40;;
17658;SDS011;8948;51.534;8.262;2023-04-24T21:25:30;9.40;;;4.00;;
17658;SDS011;8948;51.534;8.262;2023-04-24T21:30:31;14.60;;;4.37;;
17658;SDS011;8948;51.534;8.262;2023-04-24T21:35:31;12.73;;;4.57;;
17658;SDS011;8948;51.534;8.262;2023-04-24T21:40:32;18.13;;;6.43;;
17658;SDS011;8948;51.534;8.262;2023-04-24T21:45:33;9.17;;;5.47;;
17658;SDS011;8948;51.534;8.262;2023-04-24T21:50:33;16.60;;;6.37;;
17658;SDS011;8948;51.534;8.262;2023-04-24T21:55:34;14.73;;;5.63;;
17658;SDS011;8948;51.534;8.262;2023-04-24T22:00:34;17.63;;;5.30;;
17658;SDS011;8948;51.534;8.262;2023-04-24T22:05:35;13.97;;;5.13;;
17658;SDS011;8948;51.534;8.262;2023-04-24T22:10:36;16.43;;;6.17;;
17658;SDS011;8948;51.534;8.262;2023-04-24T22:15:36;12.33;;;5.87;;
17658;SDS011;8948;51.534;8.262;2023-04-24T22:20:37;26.23;;;7.23;;
17658;SDS011;8948;51.534;8.262;2023-04-24T22:25:38;19.83;;;5.60;;
17658;SDS011;8948;51.534;8.262;2023-04-24T22:30:39;13.43;;;5.60;;
17658;SDS011;8948;51.534;8.262;2023-04-24T22:35:40;11.10;;;5.10;;
17658;SDS011;8948;51.534;8.262;2023-04-24T22:40:41;17.47;;;5.37;;
17658;SDS011;8948;51.534;8.262;2023-04-24T22:45:41;16.03;;;5.67;;
17658;SDS011;8948;51.534;8.262;2023-04-24T22:50:42;18.83;;;6.30;;
17658;SDS011;8948;51.534;8.262;2023-04-24T22:55:42;16.03;;;6.27;;
17658;SDS011;8948;51.534;8.262;2023-04-24T23:00:43;18.80;;;6.83;;
17658;SDS011;8948;51.534;8.262;2023-04-24T23:05:44;15.10;;;5.57;;
17658;SDS011;8948;51.534;8.262;2023-04-24T23:10:44;25.13;;;6.23;;
17658;SDS011;8948;51.534;8.262;2023-04-24T23:15:45;21.73;;;7.53;;
17658;SDS011;8948;51.534;8.262;2023-04-24T23:20:45;19.57;;;7.20;;
17658;SDS011;8948;51.534;8.262;2023-04-24T23:25:46;21.13;;;7.37;;
17658;SDS011;8948;51.534;8.262;2023-04-24T23:30:46;21.30;;;8.00;;
17658;SDS011;8948;51.534;8.262;2023-04-24T23:35:47;21.47;;;7.53;;
17658;SDS011;8948;51.534;8.262;2023-04-24T23:40:48;22.33;;;8.30;;
17658;SDS011;8948;51.534;8.262;2023-04-24T23:45:50;24.97;;;9.57;;
17658;SDS011;8948;51.534;8.262;2023-04-24T23:50:51;26.47;;;9.50;;
17658;SDS011;8948;51.534;8.262;2023-04-24T23:55:52;21.37;;;9.43;;
